createdAt,value
2023-09-26T00:00:25.013Z,102154.14
2023-09-26T00:03:14.185Z,102153.28
2023-09-26T00:05:43.741Z,102152.22
2023-09-26T00:08:12.412Z,102154.52
2023-09-26T00:10:41.183Z,102154.86
2023-09-26T00:13:09.916Z,102152.41
2023-09-26T00:15:38.456Z,102154.16
2023-09-26T00:18:07.899Z,102156.96
2023-09-26T00:20:40.131Z,102155.05
2023-09-26T00:23:08.491Z,102150.48
2023-09-26T00:25:39.250Z,102152.59
2023-09-26T00:28:08.686Z,102149.96
2023-09-26T00:30:37.255Z,102149.27
2023-09-26T00:33:05.910Z,102148.02
2023-09-26T00:35:34.618Z,102148.56
2023-09-26T00:38:03.400Z,102151.35
2023-09-26T00:40:32.313Z,102150.15
2023-09-26T00:43:04.084Z,102147.69
2023-09-26T00:45:33.879Z,102152.24
2023-09-26T00:48:04.607Z,102155.04
2023-09-26T00:50:33.281Z,102160.83
2023-09-26T00:53:01.885Z,102158.73
2023-09-26T00:55:30.442Z,102160.48
2023-09-26T00:57:59.433Z,102160.29
2023-09-26T01:00:28.417Z,102159.41
2023-09-26T01:02:59.468Z,102155.91
2023-09-26T01:05:28.578Z,102159.56
2023-09-26T01:07:57.135Z,102158.50
2023-09-26T01:10:26.304Z,102159.71
2023-09-26T01:12:54.669Z,102161.29
2023-09-26T01:15:40.614Z,102159.17
2023-09-26T01:18:09.619Z,102161.45
2023-09-26T01:20:44.670Z,102161.63
2023-09-26T01:23:16.425Z,102163.38
2023-09-26T01:25:45.803Z,102162.33
2023-09-26T01:28:18.436Z,102160.21
2023-09-26T01:30:48.350Z,102158.81
2023-09-26T01:33:18.418Z,102160.38
2023-09-26T01:35:47.919Z,102158.63
2023-09-26T01:38:18.554Z,102160.02
2023-09-26T01:40:47.748Z,102160.90
2023-09-26T01:43:17.390Z,102158.09
2023-09-26T01:45:46.157Z,102159.50
2023-09-26T01:48:15.226Z,102160.71
2023-09-26T01:50:44.738Z,102161.06
2023-09-26T01:53:15.479Z,102167.52
2023-09-26T01:55:45.073Z,102164.55
2023-09-26T01:58:14.098Z,102167.52
2023-09-26T02:00:43.851Z,102168.19
2023-09-26T02:03:12.623Z,102171.68
2023-09-26T02:05:42.011Z,102171.14
2023-09-26T02:08:10.780Z,102171.30
2023-09-26T02:10:39.455Z,102173.04
2023-09-26T02:13:08.139Z,102169.53
2023-09-26T02:15:38.050Z,102170.56
2023-09-26T02:18:07.233Z,102176.84
2023-09-26T02:20:35.937Z,102180.14
2023-09-26T02:23:05.514Z,102182.73
2023-09-26T02:25:33.961Z,102193.04
2023-09-26T02:28:03.066Z,102192.31
2023-09-26T02:30:31.714Z,102194.77
2023-09-26T02:33:00.334Z,102193.89
2023-09-26T02:35:29.143Z,102193.19
2023-09-26T02:37:58.330Z,102194.40
2023-09-26T02:40:27.362Z,102197.20
2023-09-26T02:42:55.923Z,102200.17
2023-09-26T02:45:24.358Z,102195.45
2023-09-26T02:47:52.739Z,102197.73
2023-09-26T02:50:24.033Z,102197.90
2023-09-26T02:52:53.878Z,102201.40
2023-09-26T02:55:22.698Z,102199.98
2023-09-26T02:57:51.485Z,102196.33
2023-09-26T03:00:20.802Z,102196.50
2023-09-26T03:02:49.767Z,102198.77
2023-09-26T03:05:19.683Z,102195.80
2023-09-26T03:07:51.220Z,102195.95
2023-09-26T03:10:20.285Z,102197.88
2023-09-26T03:12:50.260Z,102197.02
2023-09-26T03:15:19.336Z,102201.36
2023-09-26T03:17:49.140Z,102202.75
2023-09-26T03:20:18.009Z,102203.44
2023-09-26T03:22:46.843Z,102200.98
2023-09-26T03:25:15.413Z,102203.95
2023-09-26T03:31:19.633Z,102210.05
2023-09-26T03:33:51.739Z,102210.23
2023-09-26T03:36:20.469Z,102208.63
2023-09-26T03:38:50.483Z,102212.30
2023-09-26T03:41:18.785Z,102210.34
2023-09-26T03:43:48.010Z,102211.71
2023-09-26T03:46:16.497Z,102215.53
2023-09-26T03:48:45.128Z,102219.17
2023-09-26T03:51:15.020Z,102218.09
2023-09-26T03:53:44.680Z,102218.21
2023-09-26T03:56:13.172Z,102217.49
2023-09-26T03:58:41.716Z,102220.98
2023-09-26T04:01:14.506Z,102221.30
2023-09-26T04:03:47.946Z,102221.27
2023-09-26T04:06:17.565Z,102225.42
2023-09-26T04:08:47.216Z,102225.94
2023-09-26T04:11:19.508Z,102227.84
2023-09-26T04:13:47.858Z,102230.26
2023-09-26T04:16:16.473Z,102228.70
2023-09-26T04:18:48.346Z,102231.48
2023-09-26T04:21:17.656Z,102233.21
2023-09-26T04:23:46.183Z,102232.53
2023-09-26T04:26:16.814Z,102236.58
2023-09-26T04:28:50.104Z,102240.27
2023-09-26T04:31:20.118Z,102241.35
2023-09-26T04:33:49.929Z,102244.18
2023-09-26T04:36:18.833Z,102243.30
2023-09-26T04:38:48.005Z,102247.67
2023-09-26T04:41:17.566Z,102240.02
2023-09-26T04:43:45.834Z,102244.02
2023-09-26T04:46:15.435Z,102245.25
2023-09-26T04:48:45.643Z,102248.42
2023-09-26T04:51:17.291Z,102250.20
2023-09-26T04:53:45.668Z,102249.30
2023-09-26T04:56:14.178Z,102247.23
2023-09-26T04:58:42.651Z,102243.73
2023-09-26T05:01:16.325Z,102248.85
2023-09-26T05:03:46.368Z,102256.02
2023-09-26T05:06:15.073Z,102259.88
2023-09-26T05:08:43.689Z,102262.16
2023-09-26T05:11:16.485Z,102259.04
2023-09-26T05:13:45.299Z,102263.80
2023-09-26T05:16:16.121Z,102263.30
2023-09-26T05:18:44.448Z,102269.11
2023-09-26T05:21:13.337Z,102269.83
2023-09-26T05:23:41.776Z,102270.70
2023-09-26T05:26:12.744Z,102271.42
2023-09-26T05:28:42.327Z,102274.97
2023-09-26T05:31:10.890Z,102274.48
2023-09-26T05:33:39.494Z,102276.45
2023-09-26T05:36:08.345Z,102279.30
2023-09-26T05:38:37.071Z,102279.86
2023-09-26T05:41:06.927Z,102281.30
2023-09-26T05:43:35.521Z,102278.88
2023-09-26T05:46:05.867Z,102278.05
2023-09-26T05:48:36.018Z,102281.02
2023-09-26T05:51:04.946Z,102284.05
2023-09-26T05:53:33.589Z,102279.17
2023-09-26T05:56:02.825Z,102281.11
2023-09-26T05:58:31.405Z,102284.44
2023-09-26T06:01:07.808Z,102284.82
2023-09-26T06:03:36.551Z,102286.41
2023-09-26T06:06:05.896Z,102286.27
2023-09-26T06:08:35.752Z,102292.42
2023-09-26T06:11:05.876Z,102293.89
2023-09-26T06:13:34.700Z,102296.01
2023-09-26T06:16:06.796Z,102292.02
2023-09-26T06:18:35.416Z,102290.63
2023-09-26T06:21:05.382Z,102290.98
2023-09-26T06:23:34.313Z,102293.25
2023-09-26T06:26:03.971Z,102288.36
2023-09-26T06:28:32.763Z,102289.23
2023-09-26T06:31:11.901Z,102293.23
2023-09-26T06:33:42.762Z,102295.48
2023-09-26T06:36:15.087Z,102296.17
2023-09-26T06:38:43.731Z,102298.25
2023-09-26T06:41:12.192Z,102292.41
2023-09-26T06:43:40.592Z,102294.29
2023-09-26T06:46:10.225Z,102292.14
2023-09-26T06:48:39.866Z,102295.58
2023-09-26T06:51:09.689Z,102298.64
2023-09-26T06:53:38.778Z,102294.70
2023-09-26T06:56:09.549Z,102292.88
2023-09-26T06:58:39.394Z,102290.36
2023-09-26T07:01:19.201Z,102291.70
2023-09-26T07:03:47.718Z,102292.10
2023-09-26T07:06:16.889Z,102293.05
2023-09-26T07:08:46.070Z,102295.39
2023-09-26T07:11:14.694Z,102295.64
2023-09-26T07:16:14.367Z,102296.30
2023-09-26T07:18:42.808Z,102298.31
2023-09-26T07:21:11.242Z,102295.73
2023-09-26T07:23:39.556Z,102293.52
2023-09-26T07:26:15.707Z,102288.79
2023-09-26T07:28:46.859Z,102288.27
2023-09-26T07:31:19.116Z,102286.30
2023-09-26T07:33:47.883Z,102284.45
2023-09-26T07:36:16.889Z,102284.27
2023-09-26T07:38:45.760Z,102284.23
2023-09-26T07:41:14.028Z,102288.65
2023-09-26T07:43:44.250Z,102290.71
2023-09-26T07:46:13.530Z,102287.35
2023-09-26T07:48:41.972Z,102285.90
2023-09-26T07:51:13.876Z,102282.69
2023-09-26T07:53:45.161Z,102286.49
2023-09-26T07:56:14.730Z,102287.15
2023-09-26T07:58:43.281Z,102287.28
2023-09-26T08:01:11.924Z,102281.09
2023-09-26T08:03:40.597Z,102276.59
2023-09-26T08:06:09.335Z,102278.29
2023-09-26T08:08:38.112Z,102274.34
2023-09-26T08:11:09.933Z,102272.14
2023-09-26T08:13:40.810Z,102270.48
2023-09-26T08:16:10.929Z,102270.19
2023-09-26T08:18:39.617Z,102269.52
2023-09-26T08:21:08.516Z,102269.22
2023-09-26T08:23:37.290Z,102264.09
2023-09-26T08:26:12.205Z,102264.14
2023-09-26T08:28:41.323Z,102261.45
2023-09-26T08:31:16.160Z,102260.63
2023-09-26T08:33:46.145Z,102258.13
2023-09-26T08:36:16.911Z,102250.69
2023-09-26T08:38:46.519Z,102249.14
2023-09-26T08:41:18.267Z,102249.09
2023-09-26T08:43:49.431Z,102247.66
2023-09-26T08:46:18.992Z,102248.33
2023-09-26T08:48:49.269Z,102243.54
2023-09-26T08:51:18.002Z,102243.21
2023-09-26T08:53:46.865Z,102240.29
2023-09-26T08:56:15.269Z,102234.73
2023-09-26T08:58:46.199Z,102231.85
2023-09-26T09:01:14.849Z,102233.36
2023-09-26T09:03:43.219Z,102231.36
2023-09-26T09:25:44.871Z,102213.75
2023-09-26T09:28:21.573Z,102212.17
2023-09-26T09:30:51.791Z,102209.38
2023-09-26T09:33:21.282Z,102202.22
2023-09-26T09:35:49.545Z,102203.75
2023-09-26T09:38:18.849Z,102193.71
2023-09-26T09:40:47.871Z,102192.48
2023-09-26T09:43:16.562Z,102192.51
2023-09-26T09:45:48.564Z,102185.52
2023-09-26T09:48:18.213Z,102182.87
2023-09-26T09:50:51.417Z,102177.70
2023-09-26T09:53:22.228Z,102174.98
2023-09-26T09:55:54.247Z,102172.42
2023-09-26T09:58:29.456Z,102170.77
2023-09-26T10:00:58.224Z,102163.21
2023-09-26T10:03:27.717Z,102159.60
2023-09-26T10:05:57.316Z,102158.50
2023-09-26T10:08:28.201Z,102157.85
2023-09-26T10:10:58.180Z,102160.15
2023-09-26T10:16:09.062Z,102153.52
2023-09-26T10:18:39.391Z,102150.94
2023-09-26T10:21:33.424Z,102150.23
2023-09-26T10:24:11.015Z,102155.02
2023-09-26T10:26:50.294Z,102146.45
2023-09-26T10:29:21.452Z,102142.91
2023-09-26T10:32:00.443Z,102142.17
2023-09-26T10:37:26.637Z,102133.84
2023-09-26T10:39:56.119Z,102133.80
2023-09-26T10:45:00.135Z,102139.07
2023-09-26T10:47:28.638Z,102133.91
2023-09-26T10:50:01.231Z,102133.34
2023-09-26T10:52:31.835Z,102131.61
2023-09-26T10:55:00.359Z,102129.27
2023-09-26T10:57:29.468Z,102129.39
2023-09-26T10:59:57.889Z,102131.27
2023-09-26T11:02:26.653Z,102123.29
2023-09-26T11:04:55.909Z,102121.73
2023-09-26T11:07:25.205Z,102118.41
2023-09-26T11:09:53.917Z,102118.73
2023-09-26T11:12:23.571Z,102115.39
2023-09-26T11:14:55.568Z,102110.31
2023-09-26T11:17:30.979Z,102104.70
2023-09-26T11:20:06.785Z,102111.39
2023-09-26T11:22:50.025Z,102111.09
2023-09-26T11:25:18.741Z,102109.08
2023-09-26T11:27:49.458Z,102110.07
2023-09-26T11:30:21.021Z,102103.95
2023-09-26T11:32:53.996Z,102100.39
2023-09-26T11:35:24.089Z,102094.22
2023-09-26T11:37:54.257Z,102098.09
2023-09-26T11:40:24.168Z,102095.42
2023-09-26T11:42:56.922Z,102090.52
2023-09-26T11:45:27.727Z,102090.23
2023-09-26T11:47:58.383Z,102090.36
2023-09-26T11:50:29.600Z,102088.19
2023-09-26T11:53:02.389Z,102085.15
2023-09-26T11:58:01.044Z,102075.66
2023-09-26T12:00:30.122Z,102074.95
2023-09-26T12:02:59.681Z,102079.46
2023-09-26T12:05:28.751Z,102077.61
2023-09-26T12:07:57.376Z,102075.80
2023-09-26T12:10:25.805Z,102074.52
2023-09-26T12:12:55.932Z,102067.62
2023-09-26T12:15:26.758Z,102072.33
2023-09-26T12:17:58.049Z,102071.86
2023-09-26T12:20:27.440Z,102071.27
2023-09-26T12:22:57.853Z,102071.90
2023-09-26T12:25:29.355Z,102065.40
2023-09-26T12:27:57.973Z,102057.61
2023-09-26T12:30:26.838Z,102057.59
2023-09-26T12:32:56.292Z,102056.04
2023-09-26T12:35:25.766Z,102056.48
2023-09-26T12:37:56.173Z,102051.56
2023-09-26T12:40:25.342Z,102049.41
2023-09-26T12:42:53.948Z,102049.98
2023-09-26T12:45:22.294Z,102048.91
2023-09-26T12:47:50.693Z,102052.01
2023-09-26T12:50:19.161Z,102049.60
2023-09-26T12:52:47.604Z,102043.20
2023-09-26T12:55:18.236Z,102040.45
2023-09-26T12:57:46.725Z,102040.09
2023-09-26T13:00:15.905Z,102037.91
2023-09-26T13:02:44.799Z,102033.36
2023-09-26T13:05:13.807Z,102033.66
2023-09-26T13:07:42.107Z,102034.20
2023-09-26T13:10:11.688Z,102035.98
2023-09-26T13:12:40.106Z,102031.23
2023-09-26T13:15:13.061Z,102032.83
2023-09-26T13:17:42.154Z,102032.52
2023-09-26T13:20:12.694Z,102027.73
2023-09-26T13:22:41.742Z,102025.98
2023-09-26T13:25:10.458Z,102030.46
2023-09-26T13:27:38.777Z,102029.38
2023-09-26T13:30:08.166Z,102028.35
2023-09-26T13:32:37.037Z,102029.77
2023-09-26T13:35:06.326Z,102028.28
2023-09-26T13:37:36.657Z,102032.91
2023-09-26T13:40:06.345Z,102031.23
2023-09-26T13:42:34.940Z,102031.42
2023-09-26T13:45:04.542Z,102028.06
2023-09-26T13:47:33.779Z,102029.88
2023-09-26T13:50:02.250Z,102027.35
2023-09-26T13:52:31.748Z,102024.17
2023-09-26T13:55:00.628Z,102021.73
2023-09-26T13:57:29.030Z,102019.66
2023-09-26T13:59:57.774Z,102020.20
2023-09-26T14:02:26.921Z,102021.38
2023-09-26T14:05:09.389Z,102022.33
2023-09-26T14:07:44.072Z,102020.70
2023-09-26T14:10:12.429Z,102023.10
2023-09-26T14:12:40.773Z,102019.08
2023-09-26T14:15:10.018Z,102019.33
2023-09-26T14:17:38.364Z,102015.17
2023-09-26T14:20:10.602Z,102013.45
2023-09-26T14:22:40.361Z,102012.44
2023-09-26T14:25:12.961Z,102012.91
2023-09-26T14:27:41.507Z,102010.77
2023-09-26T14:30:12.003Z,102011.86
2023-09-26T14:32:43.919Z,102014.11
2023-09-26T14:35:13.074Z,102011.10
2023-09-26T14:37:41.456Z,102008.67
2023-09-26T14:40:11.489Z,102008.52
2023-09-26T14:42:39.807Z,102007.36
2023-09-26T14:45:13.339Z,102006.67
2023-09-26T14:47:45.352Z,101999.61
2023-09-26T14:50:29.415Z,101998.40
2023-09-26T14:53:05.872Z,101998.44
2023-09-26T14:55:38.090Z,102001.47
2023-09-26T14:58:10.982Z,102001.13
2023-09-26T15:00:50.180Z,102001.81
2023-09-26T15:03:25.088Z,102000.34
2023-09-26T15:05:54.832Z,102004.41
2023-09-26T15:08:23.992Z,102002.88
2023-09-26T15:10:52.537Z,101999.86
2023-09-26T15:13:23.214Z,101999.59
2023-09-26T15:16:06.083Z,101999.41
2023-09-26T15:18:58.753Z,102001.14
2023-09-26T15:21:35.076Z,102004.45
2023-09-26T15:24:08.417Z,102000.72
2023-09-26T15:26:36.686Z,102000.93
2023-09-26T15:29:10.883Z,102003.22
2023-09-26T15:31:43.513Z,102005.27
2023-09-26T15:34:14.501Z,102003.24
2023-09-26T15:37:01.882Z,102001.36
2023-09-26T15:39:38.917Z,102004.15
2023-09-26T15:42:08.204Z,102004.14
2023-09-26T15:44:56.318Z,102001.65
2023-09-26T15:47:34.907Z,102004.31
2023-09-26T15:50:05.954Z,102005.98
2023-09-26T15:52:38.821Z,102004.06
2023-09-26T15:55:09.082Z,102006.19
2023-09-26T15:57:39.611Z,102005.95
2023-09-26T16:00:13.912Z,102007.16
2023-09-26T16:02:45.193Z,102010.89
2023-09-26T16:05:14.123Z,102013.87
2023-09-26T16:07:43.223Z,102012.73
2023-09-26T16:10:39.204Z,102016.09
2023-09-26T16:13:10.555Z,102013.94
2023-09-26T16:15:50.373Z,102017.27
2023-09-26T16:18:20.385Z,102017.80
2023-09-26T16:20:54.192Z,102020.15
2023-09-26T16:23:26.968Z,102017.77
2023-09-26T16:25:59.410Z,102019.73
2023-09-26T16:28:29.256Z,102022.45
2023-09-26T16:31:02.937Z,102029.08
2023-09-26T16:33:35.812Z,102031.11
2023-09-26T16:36:23.460Z,102035.80
2023-09-26T16:38:55.427Z,102037.59
2023-09-26T16:41:25.057Z,102038.55
2023-09-26T16:43:53.611Z,102034.06
2023-09-26T16:46:27.257Z,102040.89
2023-09-26T16:49:11.809Z,102040.20
2023-09-26T16:51:41.795Z,102042.23
2023-09-26T16:54:16.297Z,102046.88
2023-09-26T16:56:59.695Z,102045.49
2023-09-26T16:59:39.116Z,102047.50
2023-09-26T17:02:10.319Z,102048.72
2023-09-26T17:04:38.816Z,102051.72
2023-09-26T17:07:08.299Z,102058.98
2023-09-26T17:09:37.128Z,102059.11
2023-09-26T17:12:16.796Z,102059.11
2023-09-26T17:14:48.625Z,102062.93
2023-09-26T17:17:19.377Z,102064.29
2023-09-26T17:19:48.813Z,102063.66
2023-09-26T17:22:19.008Z,102063.98
2023-09-26T17:24:51.105Z,102065.14
2023-09-26T17:27:20.397Z,102061.55
2023-09-26T17:29:52.689Z,102065.08
2023-09-26T17:32:26.154Z,102069.80
2023-09-26T17:34:57.356Z,102072.52
2023-09-26T17:37:26.942Z,102074.20
2023-09-26T17:39:56.338Z,102075.83
2023-09-26T17:42:25.367Z,102075.98
2023-09-26T17:44:54.153Z,102079.55
2023-09-26T17:47:22.632Z,102085.02
2023-09-26T17:49:51.526Z,102088.34
2023-09-26T17:52:20.765Z,102087.20
2023-09-26T17:54:49.366Z,102090.79
2023-09-26T17:57:18.295Z,102090.36
2023-09-26T17:59:47.260Z,102092.00
2023-09-26T18:02:15.800Z,102095.23
2023-09-26T18:04:48.802Z,102092.77
2023-09-26T18:07:18.419Z,102096.45
2023-09-26T18:09:47.041Z,102095.17
2023-09-26T18:12:15.965Z,102096.15
2023-09-26T18:14:44.471Z,102099.84
2023-09-26T18:17:15.372Z,102097.52
2023-09-26T18:19:44.733Z,102099.94
2023-09-26T18:22:13.596Z,102099.69
2023-09-26T18:24:42.722Z,102100.88
2023-09-26T18:27:11.892Z,102102.78
2023-09-26T18:29:40.678Z,102099.04
2023-09-26T18:32:09.389Z,102105.65
2023-09-26T18:34:38.621Z,102106.66
2023-09-26T18:37:07.769Z,102105.55
2023-09-26T18:39:36.352Z,102107.26
2023-09-26T18:42:05.062Z,102107.71
2023-09-26T18:44:33.921Z,102111.70
2023-09-26T18:47:02.458Z,102111.99
2023-09-26T18:49:31.134Z,102110.52
2023-09-26T18:52:00.196Z,102108.48
2023-09-26T18:54:29.271Z,102109.80
2023-09-26T18:56:57.965Z,102115.91
2023-09-26T18:59:26.134Z,102117.96
2023-09-26T19:01:54.597Z,102113.86
2023-09-26T19:04:23.451Z,102116.98
2023-09-26T19:06:52.333Z,102117.27
2023-09-26T19:09:20.876Z,102118.44
2023-09-26T19:11:56.542Z,102120.10
2023-09-26T19:14:26.173Z,102116.46
2023-09-26T19:16:54.759Z,102117.04
2023-09-26T19:19:24.141Z,102116.53
2023-09-26T19:21:53.754Z,102116.17
2023-09-26T19:24:23.564Z,102118.15
2023-09-26T19:26:52.477Z,102116.98
2023-09-26T19:32:56.621Z,102116.66
2023-09-26T19:35:25.199Z,102115.39
2023-09-26T19:37:54.000Z,102114.36
2023-09-26T19:40:22.475Z,102116.04
2023-09-26T19:42:50.906Z,102117.91
2023-09-26T19:45:19.629Z,102117.81
2023-09-26T19:47:48.929Z,102118.21
2023-09-26T19:50:17.904Z,102118.08
2023-09-26T19:52:46.638Z,102119.38
2023-09-26T19:55:15.573Z,102121.02
2023-09-26T19:57:48.557Z,102120.39
2023-09-26T20:00:18.190Z,102118.55
2023-09-26T20:02:46.529Z,102119.48
2023-09-26T20:05:18.268Z,102118.83
2023-09-26T20:07:47.038Z,102116.77
2023-09-26T20:10:15.667Z,102118.24
2023-09-26T20:12:43.966Z,102118.29
2023-09-26T20:15:23.091Z,102117.27
2023-09-26T20:17:52.684Z,102121.39
2023-09-26T20:20:21.538Z,102117.19
2023-09-26T20:22:51.592Z,102122.17
2023-09-26T20:25:21.103Z,102120.66
2023-09-26T20:27:54.566Z,102121.45
2023-09-26T20:30:23.518Z,102124.21
2023-09-26T20:32:52.083Z,102124.66
2023-09-26T20:35:21.024Z,102127.18
2023-09-26T20:37:49.456Z,102124.80
2023-09-26T20:40:18.078Z,102124.85
2023-09-26T20:42:46.630Z,102127.23
2023-09-26T20:45:15.885Z,102130.07
2023-09-26T20:47:45.696Z,102130.98
2023-09-26T20:50:14.231Z,102131.73
2023-09-26T20:52:42.967Z,102132.52
2023-09-26T20:55:11.884Z,102135.04
2023-09-26T20:57:40.505Z,102136.31
2023-09-26T21:00:10.878Z,102135.16
2023-09-26T21:02:39.378Z,102135.40
2023-09-26T21:26:14.244Z,102144.67
2023-09-26T21:28:45.830Z,102139.95
2023-09-26T21:31:15.911Z,102139.08
2023-09-26T21:33:44.406Z,102138.71
2023-09-26T21:36:13.778Z,102139.40
2023-09-26T21:38:42.154Z,102136.25
2023-09-26T21:41:10.800Z,102135.20
2023-09-26T21:43:39.969Z,102135.03
2023-09-26T21:46:08.221Z,102135.04
2023-09-26T21:48:36.728Z,102139.61
2023-09-26T21:51:05.686Z,102141.20
2023-09-26T21:53:34.145Z,102145.25
2023-09-26T21:56:11.957Z,102135.44
2023-09-26T21:58:40.204Z,102139.13
2023-09-26T22:01:12.575Z,102139.67
2023-09-26T22:03:41.562Z,102138.80
2023-09-26T22:06:11.447Z,102140.73
2023-09-26T22:08:39.794Z,102142.15
2023-09-26T22:11:08.754Z,102143.56
2023-09-26T22:13:39.940Z,102151.10
2023-09-26T22:16:08.397Z,102151.80
2023-09-26T22:18:37.220Z,102154.09
2023-09-26T22:21:05.784Z,102158.31
2023-09-26T22:23:34.275Z,102156.39
2023-09-26T22:26:02.987Z,102156.21
2023-09-26T22:28:31.327Z,102158.00
2023-09-26T22:30:59.608Z,102155.91
2023-09-26T22:33:28.711Z,102153.80
2023-09-26T22:35:57.386Z,102156.26
2023-09-26T22:38:25.997Z,102158.01
2023-09-26T22:40:54.679Z,102155.75
2023-09-26T22:43:22.874Z,102154.88
2023-09-26T22:45:51.474Z,102157.33
2023-09-26T22:48:20.195Z,102159.95
2023-09-26T22:50:48.855Z,102159.25
2023-09-26T22:53:17.223Z,102159.06
2023-09-26T22:55:49.470Z,102159.77
2023-09-26T22:58:18.364Z,102164.10
2023-09-26T23:00:47.442Z,102164.98
2023-09-26T23:03:16.438Z,102162.70
2023-09-26T23:05:45.440Z,102162.34
2023-09-26T23:08:13.978Z,102164.79
2023-09-26T23:10:42.274Z,102162.67
2023-09-26T23:13:10.691Z,102163.19
2023-09-26T23:15:39.157Z,102166.52
2023-09-26T23:18:07.953Z,102167.05
2023-09-26T23:20:41.307Z,102166.35
2023-09-26T23:23:09.780Z,102172.98
2023-09-26T23:25:38.629Z,102174.20
2023-09-26T23:28:07.477Z,102174.02
2023-09-26T23:30:36.291Z,102177.34
2023-09-26T23:33:06.131Z,102172.96
2023-09-26T23:35:36.362Z,102168.40
2023-09-26T23:38:06.765Z,102171.02
2023-09-26T23:40:35.154Z,102170.84
2023-09-26T23:43:04.811Z,102172.21
2023-09-26T23:45:34.244Z,102173.77
2023-09-26T23:48:04.041Z,102170.61
2023-09-26T23:50:32.501Z,102170.61
2023-09-26T23:53:01.677Z,102167.96
2023-09-26T23:55:30.194Z,102171.11
2023-09-26T23:57:58.503Z,102170.23
